sensor_id;sensor_type;location;lat;lon;timestamp;P1;durP1;ratioP1;P2;durP2;ratioP2
27618;SDS011;15039;50.830;4.730;2022-09-02T00:01:49;2.95;;;1.60;;
27618;SDS011;15039;50.830;4.730;2022-09-02T00:03:59;6.43;;;1.77;;
27618;SDS011;15039;50.830;4.730;2022-09-02T00:06:27;2.05;;;1.35;;
27618;SDS011;15039;50.830;4.730;2022-09-02T00:08:54;3.00;;;1.42;;
27618;SDS011;15039;50.830;4.730;2022-09-02T00:11:23;3.47;;;1.50;;
27618;SDS011;15039;50.830;4.730;2022-09-02T00:13:51;5.13;;;1.75;;
27618;SDS011;15039;50.830;4.730;2022-09-02T00:16:17;5.13;;;1.85;;
27618;SDS011;15039;50.830;4.730;2022-09-02T00:18:43;3.58;;;1.67;;
27618;SDS011;15039;50.830;4.730;2022-09-02T00:21:09;4.35;;;1.80;;
27618;SDS011;15039;50.830;4.730;2022-09-02T00:23:37;3.67;;;1.70;;
27618;SDS011;15039;50.830;4.730;2022-09-02T00:26:04;7.22;;;1.77;;
27618;SDS011;15039;50.830;4.730;2022-09-02T00:28:30;1.95;;;1.70;;
27618;SDS011;15039;50.830;4.730;2022-09-02T00:30:55;5.22;;;1.63;;
27618;SDS011;15039;50.830;4.730;2022-09-02T00:33:21;4.00;;;1.80;;
27618;SDS011;15039;50.830;4.730;2022-09-02T00:35:47;4.20;;;1.80;;
27618;SDS011;15039;50.830;4.730;2022-09-02T00:38:14;4.22;;;1.88;;
27618;SDS011;15039;50.830;4.730;2022-09-02T00:40:47;2.47;;;1.65;;
27618;SDS011;15039;50.830;4.730;2022-09-02T00:46:14;3.28;;;1.90;;
27618;SDS011;15039;50.830;4.730;2022-09-02T00:48:42;4.25;;;1.67;;
27618;SDS011;15039;50.830;4.730;2022-09-02T00:51:30;3.42;;;1.50;;
27618;SDS011;15039;50.830;4.730;2022-09-02T00:53:59;4.40;;;2.05;;
27618;SDS011;15039;50.830;4.730;2022-09-02T00:56:26;4.70;;;1.70;;
27618;SDS011;15039;50.830;4.730;2022-09-02T01:01:21;2.03;;;1.77;;
27618;SDS011;15039;50.830;4.730;2022-09-02T01:03:47;4.80;;;1.65;;
27618;SDS011;15039;50.830;4.730;2022-09-02T01:06:13;3.10;;;1.90;;
27618;SDS011;15039;50.830;4.730;2022-09-02T01:08:41;1.92;;;1.60;;
27618;SDS011;15039;50.830;4.730;2022-09-02T01:11:10;3.03;;;1.70;;
27618;SDS011;15039;50.830;4.730;2022-09-02T01:13:38;6.65;;;1.70;;
27618;SDS011;15039;50.830;4.730;2022-09-02T01:18:55;7.43;;;1.60;;
27618;SDS011;15039;50.830;4.730;2022-09-02T01:21:24;3.15;;;1.60;;
27618;SDS011;15039;50.830;4.730;2022-09-02T01:23:51;2.72;;;1.60;;
27618;SDS011;15039;50.830;4.730;2022-09-02T01:26:18;4.03;;;1.60;;
27618;SDS011;15039;50.830;4.730;2022-09-02T01:28:44;4.88;;;1.60;;
27618;SDS011;15039;50.830;4.730;2022-09-02T01:31:10;4.00;;;1.92;;
27618;SDS011;15039;50.830;4.730;2022-09-02T01:33:35;6.05;;;1.42;;
27618;SDS011;15039;50.830;4.730;2022-09-02T01:36:01;3.13;;;1.73;;
27618;SDS011;15039;50.830;4.730;2022-09-02T01:38:28;3.50;;;1.30;;
27618;SDS011;15039;50.830;4.730;2022-09-02T01:40:54;3.92;;;1.80;;
27618;SDS011;15039;50.830;4.730;2022-09-02T01:43:21;2.63;;;1.38;;
27618;SDS011;15039;50.830;4.730;2022-09-02T01:45:50;3.67;;;1.88;;
27618;SDS011;15039;50.830;4.730;2022-09-02T01:48:17;2.33;;;1.60;;
27618;SDS011;15039;50.830;4.730;2022-09-02T01:50:44;2.55;;;1.80;;
27618;SDS011;15039;50.830;4.730;2022-09-02T01:53:14;4.20;;;1.40;;
27618;SDS011;15039;50.830;4.730;2022-09-02T01:55:40;3.97;;;1.77;;
27618;SDS011;15039;50.830;4.730;2022-09-02T01:58:06;2.22;;;1.50;;
27618;SDS011;15039;50.830;4.730;2022-09-02T02:00:32;2.40;;;1.50;;
27618;SDS011;15039;50.830;4.730;2022-09-02T02:02:58;3.67;;;1.42;;
27618;SDS011;15039;50.830;4.730;2022-09-02T02:05:24;5.95;;;1.55;;
27618;SDS011;15039;50.830;4.730;2022-09-02T02:07:49;2.00;;;1.50;;
27618;SDS011;15039;50.830;4.730;2022-09-02T02:10:16;3.03;;;1.58;;
27618;SDS011;15039;50.830;4.730;2022-09-02T02:12:43;3.63;;;1.77;;
27618;SDS011;15039;50.830;4.730;2022-09-02T02:15:12;3.42;;;1.80;;
27618;SDS011;15039;50.830;4.730;2022-09-02T02:17:40;5.43;;;1.75;;
27618;SDS011;15039;50.830;4.730;2022-09-02T02:20:06;6.93;;;1.58;;
27618;SDS011;15039;50.830;4.730;2022-09-02T02:22:34;8.57;;;1.70;;
27618;SDS011;15039;50.830;4.730;2022-09-02T02:25:00;3.70;;;1.63;;
27618;SDS011;15039;50.830;4.730;2022-09-02T02:27:26;5.13;;;1.65;;
27618;SDS011;15039;50.830;4.730;2022-09-02T02:29:52;2.53;;;1.80;;
27618;SDS011;15039;50.830;4.730;2022-09-02T02:32:18;2.58;;;1.55;;
27618;SDS011;15039;50.830;4.730;2022-09-02T02:34:44;6.20;;;1.42;;
27618;SDS011;15039;50.830;4.730;2022-09-02T02:37:10;2.72;;;1.63;;
27618;SDS011;15039;50.830;4.730;2022-09-02T02:39:37;2.35;;;1.80;;
27618;SDS011;15039;50.830;4.730;2022-09-02T02:42:04;4.93;;;1.80;;
27618;SDS011;15039;50.830;4.730;2022-09-02T02:44:31;3.22;;;1.63;;
27618;SDS011;15039;50.830;4.730;2022-09-02T02:46:56;2.97;;;1.67;;
27618;SDS011;15039;50.830;4.730;2022-09-02T02:49:22;3.90;;;1.90;;
27618;SDS011;15039;50.830;4.730;2022-09-02T02:51:48;4.55;;;1.83;;
27618;SDS011;15039;50.830;4.730;2022-09-02T02:54:14;7.22;;;2.25;;
27618;SDS011;15039;50.830;4.730;2022-09-02T02:56:40;5.93;;;2.00;;
27618;SDS011;15039;50.830;4.730;2022-09-02T02:59:06;5.93;;;2.00;;
27618;SDS011;15039;50.830;4.730;2022-09-02T03:01:32;4.25;;;1.70;;
27618;SDS011;15039;50.830;4.730;2022-09-02T03:03:58;4.43;;;1.98;;
27618;SDS011;15039;50.830;4.730;2022-09-02T03:06:24;2.65;;;1.65;;
27618;SDS011;15039;50.830;4.730;2022-09-02T03:08:50;3.03;;;1.63;;
27618;SDS011;15039;50.830;4.730;2022-09-02T03:11:17;2.92;;;1.70;;
27618;SDS011;15039;50.830;4.730;2022-09-02T03:13:46;1.95;;;1.75;;
27618;SDS011;15039;50.830;4.730;2022-09-02T03:16:15;6.78;;;1.85;;
27618;SDS011;15039;50.830;4.730;2022-09-02T03:18:43;3.63;;;1.70;;
27618;SDS011;15039;50.830;4.730;2022-09-02T03:21:10;2.78;;;1.80;;
27618;SDS011;15039;50.830;4.730;2022-09-02T03:23:36;4.10;;;1.77;;
27618;SDS011;15039;50.830;4.730;2022-09-02T03:26:02;2.65;;;1.88;;
27618;SDS011;15039;50.830;4.730;2022-09-02T03:28:34;4.38;;;2.10;;
27618;SDS011;15039;50.830;4.730;2022-09-02T03:30:59;3.60;;;2.00;;
27618;SDS011;15039;50.830;4.730;2022-09-02T03:33:25;3.70;;;2.10;;
27618;SDS011;15039;50.830;4.730;2022-09-02T03:35:51;4.55;;;1.60;;
27618;SDS011;15039;50.830;4.730;2022-09-02T03:38:16;2.20;;;2.00;;
27618;SDS011;15039;50.830;4.730;2022-09-02T03:40:42;6.95;;;1.90;;
27618;SDS011;15039;50.830;4.730;2022-09-02T03:43:08;5.63;;;1.83;;
27618;SDS011;15039;50.830;4.730;2022-09-02T03:45:34;5.03;;;2.15;;
27618;SDS011;15039;50.830;4.730;2022-09-02T03:48:00;3.60;;;2.10;;
27618;SDS011;15039;50.830;4.730;2022-09-02T03:50:27;4.80;;;2.08;;
27618;SDS011;15039;50.830;4.730;2022-09-02T03:52:55;3.38;;;2.28;;
27618;SDS011;15039;50.830;4.730;2022-09-02T03:55:23;8.63;;;2.20;;
27618;SDS011;15039;50.830;4.730;2022-09-02T03:57:48;5.25;;;2.20;;
27618;SDS011;15039;50.830;4.730;2022-09-02T04:00:17;3.60;;;2.00;;
27618;SDS011;15039;50.830;4.730;2022-09-02T04:02:44;8.43;;;2.13;;
27618;SDS011;15039;50.830;4.730;2022-09-02T04:05:10;3.30;;;2.20;;
27618;SDS011;15039;50.830;4.730;2022-09-02T04:07:36;3.63;;;2.08;;
27618;SDS011;15039;50.830;4.730;2022-09-02T04:10:03;3.95;;;2.30;;
27618;SDS011;15039;50.830;4.730;2022-09-02T04:12:29;7.15;;;2.13;;
27618;SDS011;15039;50.830;4.730;2022-09-02T04:14:55;4.03;;;1.95;;
27618;SDS011;15039;50.830;4.730;2022-09-02T04:17:21;3.72;;;2.08;;
27618;SDS011;15039;50.830;4.730;2022-09-02T04:19:46;4.97;;;2.17;;
27618;SDS011;15039;50.830;4.730;2022-09-02T04:22:12;5.93;;;2.22;;
27618;SDS011;15039;50.830;4.730;2022-09-02T04:24:37;2.85;;;2.05;;
27618;SDS011;15039;50.830;4.730;2022-09-02T04:27:03;5.20;;;2.10;;
27618;SDS011;15039;50.830;4.730;2022-09-02T04:29:29;5.38;;;2.40;;
27618;SDS011;15039;50.830;4.730;2022-09-02T04:31:56;4.80;;;2.13;;
27618;SDS011;15039;50.830;4.730;2022-09-02T04:34:21;2.42;;;1.98;;
27618;SDS011;15039;50.830;4.730;2022-09-02T04:36:47;2.60;;;1.95;;
27618;SDS011;15039;50.830;4.730;2022-09-02T04:39:12;2.88;;;1.90;;
27618;SDS011;15039;50.830;4.730;2022-09-02T04:41:40;5.13;;;2.05;;
27618;SDS011;15039;50.830;4.730;2022-09-02T04:44:06;5.10;;;2.20;;
27618;SDS011;15039;50.830;4.730;2022-09-02T04:46:32;5.10;;;2.28;;
27618;SDS011;15039;50.830;4.730;2022-09-02T04:48:58;2.63;;;1.92;;
27618;SDS011;15039;50.830;4.730;2022-09-02T04:51:24;3.50;;;2.13;;
27618;SDS011;15039;50.830;4.730;2022-09-02T04:53:51;5.95;;;2.33;;
27618;SDS011;15039;50.830;4.730;2022-09-02T04:56:19;6.82;;;2.20;;
27618;SDS011;15039;50.830;4.730;2022-09-02T04:58:47;10.73;;;3.22;;
27618;SDS011;15039;50.830;4.730;2022-09-02T05:01:16;5.38;;;2.03;;
27618;SDS011;15039;50.830;4.730;2022-09-02T05:03:45;2.53;;;1.75;;
27618;SDS011;15039;50.830;4.730;2022-09-02T05:06:13;4.75;;;2.30;;
27618;SDS011;15039;50.830;4.730;2022-09-02T05:08:40;4.63;;;2.70;;
27618;SDS011;15039;50.830;4.730;2022-09-02T05:11:07;4.28;;;2.00;;
27618;SDS011;15039;50.830;4.730;2022-09-02T05:13:35;6.53;;;2.37;;
27618;SDS011;15039;50.830;4.730;2022-09-02T05:16:01;6.60;;;2.30;;
27618;SDS011;15039;50.830;4.730;2022-09-02T05:18:27;5.63;;;2.42;;
27618;SDS011;15039;50.830;4.730;2022-09-02T05:20:54;6.20;;;2.22;;
27618;SDS011;15039;50.830;4.730;2022-09-02T05:23:20;4.97;;;2.60;;
27618;SDS011;15039;50.830;4.730;2022-09-02T05:25:45;5.35;;;2.38;;
27618;SDS011;15039;50.830;4.730;2022-09-02T05:28:11;3.40;;;2.30;;
27618;SDS011;15039;50.830;4.730;2022-09-02T05:30:38;3.25;;;2.45;;
27618;SDS011;15039;50.830;4.730;2022-09-02T05:33:05;2.30;;;2.10;;
27618;SDS011;15039;50.830;4.730;2022-09-02T05:35:31;5.90;;;2.13;;
27618;SDS011;15039;50.830;4.730;2022-09-02T05:37:56;4.35;;;2.28;;
27618;SDS011;15039;50.830;4.730;2022-09-02T05:40:22;5.25;;;2.60;;
27618;SDS011;15039;50.830;4.730;2022-09-02T05:42:49;6.18;;;2.53;;
27618;SDS011;15039;50.830;4.730;2022-09-02T05:45:14;2.80;;;2.20;;
27618;SDS011;15039;50.830;4.730;2022-09-02T05:47:40;2.97;;;2.10;;
27618;SDS011;15039;50.830;4.730;2022-09-02T05:50:06;5.72;;;2.55;;
27618;SDS011;15039;50.830;4.730;2022-09-02T05:52:32;3.75;;;2.35;;
27618;SDS011;15039;50.830;4.730;2022-09-02T05:54:58;4.32;;;2.83;;
27618;SDS011;15039;50.830;4.730;2022-09-02T05:57:24;4.15;;;2.75;;
27618;SDS011;15039;50.830;4.730;2022-09-02T05:59:50;2.90;;;2.10;;
27618;SDS011;15039;50.830;4.730;2022-09-02T06:02:20;8.27;;;2.28;;
27618;SDS011;15039;50.830;4.730;2022-09-02T06:04:48;5.78;;;2.38;;
27618;SDS011;15039;50.830;4.730;2022-09-02T06:07:16;3.17;;;2.15;;
27618;SDS011;15039;50.830;4.730;2022-09-02T06:09:42;5.10;;;2.20;;
27618;SDS011;15039;50.830;4.730;2022-09-02T06:12:09;3.60;;;2.25;;
27618;SDS011;15039;50.830;4.730;2022-09-02T06:14:37;6.55;;;2.85;;
27618;SDS011;15039;50.830;4.730;2022-09-02T06:17:03;7.70;;;2.40;;
27618;SDS011;15039;50.830;4.730;2022-09-02T06:19:29;6.38;;;2.60;;
27618;SDS011;15039;50.830;4.730;2022-09-02T06:21:57;4.70;;;2.30;;
27618;SDS011;15039;50.830;4.730;2022-09-02T06:24:24;2.80;;;2.42;;
27618;SDS011;15039;50.830;4.730;2022-09-02T06:26:50;4.03;;;2.30;;
27618;SDS011;15039;50.830;4.730;2022-09-02T06:29:20;5.13;;;2.33;;
27618;SDS011;15039;50.830;4.730;2022-09-02T06:31:48;5.95;;;2.63;;
27618;SDS011;15039;50.830;4.730;2022-09-02T06:34:14;6.82;;;3.17;;
27618;SDS011;15039;50.830;4.730;2022-09-02T06:36:42;9.18;;;3.25;;
27618;SDS011;15039;50.830;4.730;2022-09-02T06:39:11;4.18;;;2.85;;
27618;SDS011;15039;50.830;4.730;2022-09-02T06:41:40;5.13;;;2.72;;
27618;SDS011;15039;50.830;4.730;2022-09-02T06:44:07;15.65;;;3.45;;
27618;SDS011;15039;50.830;4.730;2022-09-02T06:46:35;3.85;;;2.70;;
27618;SDS011;15039;50.830;4.730;2022-09-02T06:49:04;4.35;;;2.42;;
27618;SDS011;15039;50.830;4.730;2022-09-02T06:51:32;6.05;;;2.80;;
27618;SDS011;15039;50.830;4.730;2022-09-02T06:54:01;3.65;;;2.78;;
27618;SDS011;15039;50.830;4.730;2022-09-02T06:56:27;5.50;;;2.72;;
27618;SDS011;15039;50.830;4.730;2022-09-02T06:58:53;8.20;;;2.80;;
27618;SDS011;15039;50.830;4.730;2022-09-02T07:01:20;3.03;;;2.47;;
27618;SDS011;15039;50.830;4.730;2022-09-02T07:03:47;7.32;;;2.95;;
27618;SDS011;15039;50.830;4.730;2022-09-02T07:06:32;4.68;;;2.70;;
27618;SDS011;15039;50.830;4.730;2022-09-02T07:09:00;4.20;;;2.63;;
27618;SDS011;15039;50.830;4.730;2022-09-02T07:11:25;3.05;;;2.40;;
27618;SDS011;15039;50.830;4.730;2022-09-02T07:13:51;8.45;;;2.80;;
27618;SDS011;15039;50.830;4.730;2022-09-02T07:16:17;4.57;;;2.42;;
27618;SDS011;15039;50.830;4.730;2022-09-02T07:18:43;6.85;;;2.83;;
27618;SDS011;15039;50.830;4.730;2022-09-02T07:21:09;5.22;;;3.03;;
27618;SDS011;15039;50.830;4.730;2022-09-02T07:23:36;5.88;;;2.50;;
27618;SDS011;15039;50.830;4.730;2022-09-02T07:26:02;3.72;;;2.60;;
27618;SDS011;15039;50.830;4.730;2022-09-02T07:28:27;4.10;;;2.40;;
27618;SDS011;15039;50.830;4.730;2022-09-02T07:30:53;6.38;;;2.75;;
27618;SDS011;15039;50.830;4.730;2022-09-02T07:33:19;4.38;;;2.35;;
27618;SDS011;15039;50.830;4.730;2022-09-02T07:35:46;2.75;;;2.30;;
27618;SDS011;15039;50.830;4.730;2022-09-02T07:38:13;6.75;;;2.20;;
27618;SDS011;15039;50.830;4.730;2022-09-02T07:40:40;7.40;;;2.10;;
27618;SDS011;15039;50.830;4.730;2022-09-02T07:43:07;6.30;;;2.28;;
27618;SDS011;15039;50.830;4.730;2022-09-02T07:45:34;4.53;;;2.38;;
27618;SDS011;15039;50.830;4.730;2022-09-02T07:48:01;2.80;;;2.45;;
27618;SDS011;15039;50.830;4.730;2022-09-02T07:50:31;6.60;;;2.13;;
27618;SDS011;15039;50.830;4.730;2022-09-02T07:52:58;4.32;;;2.70;;
27618;SDS011;15039;50.830;4.730;2022-09-02T07:55:24;3.10;;;2.03;;
27618;SDS011;15039;50.830;4.730;2022-09-02T07:57:51;4.80;;;2.10;;
27618;SDS011;15039;50.830;4.730;2022-09-02T08:00:19;3.08;;;1.92;;
27618;SDS011;15039;50.830;4.730;2022-09-02T08:02:46;2.10;;;1.90;;
27618;SDS011;15039;50.830;4.730;2022-09-02T08:05:13;3.67;;;2.20;;
27618;SDS011;15039;50.830;4.730;2022-09-02T08:07:39;5.70;;;2.13;;
27618;SDS011;15039;50.830;4.730;2022-09-02T08:10:06;2.97;;;2.08;;
27618;SDS011;15039;50.830;4.730;2022-09-02T08:12:34;10.18;;;2.40;;
27618;SDS011;15039;50.830;4.730;2022-09-02T08:15:01;4.28;;;2.10;;
27618;SDS011;15039;50.830;4.730;2022-09-02T08:17:27;5.95;;;2.30;;
27618;SDS011;15039;50.830;4.730;2022-09-02T08:19:53;2.63;;;1.90;;
27618;SDS011;15039;50.830;4.730;2022-09-02T08:22:19;7.00;;;2.55;;
27618;SDS011;15039;50.830;4.730;2022-09-02T08:24:44;2.72;;;1.90;;
27618;SDS011;15039;50.830;4.730;2022-09-02T08:27:10;5.35;;;2.30;;
27618;SDS011;15039;50.830;4.730;2022-09-02T08:29:36;5.32;;;2.05;;
27618;SDS011;15039;50.830;4.730;2022-09-02T08:32:01;12.90;;;2.15;;
27618;SDS011;15039;50.830;4.730;2022-09-02T08:34:27;3.95;;;2.17;;
27618;SDS011;15039;50.830;4.730;2022-09-02T08:36:53;4.38;;;2.33;;
27618;SDS011;15039;50.830;4.730;2022-09-02T08:39:19;3.75;;;2.15;;
27618;SDS011;15039;50.830;4.730;2022-09-02T08:44:22;6.00;;;2.45;;
27618;SDS011;15039;50.830;4.730;2022-09-02T08:46:52;7.57;;;2.13;;
27618;SDS011;15039;50.830;4.730;2022-09-02T08:49:27;7.72;;;2.13;;
27618;SDS011;15039;50.830;4.730;2022-09-02T08:52:04;2.72;;;1.88;;
27618;SDS011;15039;50.830;4.730;2022-09-02T08:54:36;6.95;;;1.98;;
27618;SDS011;15039;50.830;4.730;2022-09-02T08:57:09;4.30;;;1.98;;
27618;SDS011;15039;50.830;4.730;2022-09-02T08:59:35;3.00;;;1.98;;
27618;SDS011;15039;50.830;4.730;2022-09-02T09:15:12;3.22;;;1.55;;
27618;SDS011;15039;50.830;4.730;2022-09-02T09:20:28;5.50;;;1.30;;
27618;SDS011;15039;50.830;4.730;2022-09-02T09:22:57;6.03;;;1.50;;
27618;SDS011;15039;50.830;4.730;2022-09-02T09:25:29;3.20;;;1.45;;
27618;SDS011;15039;50.830;4.730;2022-09-02T09:27:56;3.88;;;1.45;;
27618;SDS011;15039;50.830;4.730;2022-09-02T09:30:26;2.10;;;1.40;;
27618;SDS011;15039;50.830;4.730;2022-09-02T09:32:53;4.47;;;1.52;;
27618;SDS011;15039;50.830;4.730;2022-09-02T09:35:21;2.15;;;1.20;;
27618;SDS011;15039;50.830;4.730;2022-09-02T09:37:55;2.63;;;1.60;;
27618;SDS011;15039;50.830;4.730;2022-09-02T09:45:28;1.35;;;1.20;;
27618;SDS011;15039;50.830;4.730;2022-09-02T09:53:34;1.20;;;1.10;;
27618;SDS011;15039;50.830;4.730;2022-09-02T10:09:06;1.85;;;1.30;;
27618;SDS011;15039;50.830;4.730;2022-09-02T10:12:05;1.00;;;1.00;;
27618;SDS011;15039;50.830;4.730;2022-09-02T10:14:34;2.55;;;1.10;;
27618;SDS011;15039;50.830;4.730;2022-09-02T10:20:17;1.10;;;1.00;;
27618;SDS011;15039;50.830;4.730;2022-09-02T10:25:46;2.35;;;1.00;;
27618;SDS011;15039;50.830;4.730;2022-09-02T10:28:45;2.35;;;0.98;;
27618;SDS011;15039;50.830;4.730;2022-09-02T10:31:33;0.70;;;0.70;;
27618;SDS011;15039;50.830;4.730;2022-09-02T10:37:11;1.80;;;0.90;;
27618;SDS011;15039;50.830;4.730;2022-09-02T10:50:48;3.50;;;0.70;;
27618;SDS011;15039;50.830;4.730;2022-09-02T10:55:55;0.90;;;0.90;;
27618;SDS011;15039;50.830;4.730;2022-09-02T10:58:36;4.33;;;1.10;;
27618;SDS011;15039;50.830;4.730;2022-09-02T11:01:35;7.45;;;1.10;;
27618;SDS011;15039;50.830;4.730;2022-09-02T11:04:14;1.20;;;0.90;;
27618;SDS011;15039;50.830;4.730;2022-09-02T11:06:51;2.20;;;0.85;;
27618;SDS011;15039;50.830;4.730;2022-09-02T11:12:33;1.77;;;0.90;;
27618;SDS011;15039;50.830;4.730;2022-09-02T11:15:11;1.58;;;0.80;;
27618;SDS011;15039;50.830;4.730;2022-09-02T11:25:36;2.60;;;0.75;;
27618;SDS011;15039;50.830;4.730;2022-09-02T11:31:04;0.80;;;0.80;;
27618;SDS011;15039;50.830;4.730;2022-09-02T11:33:59;1.20;;;1.00;;
27618;SDS011;15039;50.830;4.730;2022-09-02T11:36:26;0.70;;;0.70;;
27618;SDS011;15039;50.830;4.730;2022-09-02T11:39:04;3.17;;;0.85;;
27618;SDS011;15039;50.830;4.730;2022-09-02T11:54:53;1.25;;;0.70;;
27618;SDS011;15039;50.830;4.730;2022-09-02T11:57:28;7.50;;;0.98;;
27618;SDS011;15039;50.830;4.730;2022-09-02T12:02:42;1.38;;;0.73;;
27618;SDS011;15039;50.830;4.730;2022-09-02T12:08:55;4.20;;;0.70;;
27618;SDS011;15039;50.830;4.730;2022-09-02T12:11:03;1.30;;;0.90;;
27618;SDS011;15039;50.830;4.730;2022-09-02T12:16:57;1.05;;;0.80;;
27618;SDS011;15039;50.830;4.730;2022-09-02T12:21:19;3.10;;;0.80;;
27618;SDS011;15039;50.830;4.730;2022-09-02T12:26:17;0.80;;;0.80;;
27618;SDS011;15039;50.830;4.730;2022-09-02T12:28:45;0.63;;;0.63;;
27618;SDS011;15039;50.830;4.730;2022-09-02T12:33:56;0.63;;;0.60;;
27618;SDS011;15039;50.830;4.730;2022-09-02T12:47:02;1.70;;;0.70;;
27618;SDS011;15039;50.830;4.730;2022-09-02T12:57:44;2.92;;;0.90;;
27618;SDS011;15039;50.830;4.730;2022-09-02T13:33:40;0.80;;;0.77;;
27618;SDS011;15039;50.830;4.730;2022-09-02T13:36:07;0.95;;;0.85;;
27618;SDS011;15039;50.830;4.730;2022-09-02T13:38:32;6.97;;;1.10;;
27618;SDS011;15039;50.830;4.730;2022-09-02T13:40:58;3.22;;;0.82;;
27618;SDS011;15039;50.830;4.730;2022-09-02T13:43:24;3.63;;;1.13;;
27618;SDS011;15039;50.830;4.730;2022-09-02T13:45:51;3.42;;;0.70;;
27618;SDS011;15039;50.830;4.730;2022-09-02T13:48:24;1.15;;;0.75;;
27618;SDS011;15039;50.830;4.730;2022-09-02T13:50:52;2.92;;;1.05;;
27618;SDS011;15039;50.830;4.730;2022-09-02T13:55:52;1.73;;;0.70;;
27618;SDS011;15039;50.830;4.730;2022-09-02T13:58:39;0.95;;;0.80;;
27618;SDS011;15039;50.830;4.730;2022-09-02T14:01:28;1.10;;;0.77;;
27618;SDS011;15039;50.830;4.730;2022-09-02T14:03:55;0.82;;;0.82;;
27618;SDS011;15039;50.830;4.730;2022-09-02T14:06:33;0.82;;;0.60;;
27618;SDS011;15039;50.830;4.730;2022-09-02T14:09:02;0.57;;;0.57;;
27618;SDS011;15039;50.830;4.730;2022-09-02T14:11:39;1.73;;;0.80;;
27618;SDS011;15039;50.830;4.730;2022-09-02T14:14:06;3.55;;;0.70;;
27618;SDS011;15039;50.830;4.730;2022-09-02T14:16:37;2.88;;;0.80;;
27618;SDS011;15039;50.830;4.730;2022-09-02T14:19:03;1.58;;;0.88;;
27618;SDS011;15039;50.830;4.730;2022-09-02T14:21:59;0.68;;;0.60;;
27618;SDS011;15039;50.830;4.730;2022-09-02T14:24:29;2.17;;;0.70;;
27618;SDS011;15039;50.830;4.730;2022-09-02T14:27:02;1.25;;;0.70;;
27618;SDS011;15039;50.830;4.730;2022-09-02T14:29:28;0.80;;;0.80;;
27618;SDS011;15039;50.830;4.730;2022-09-02T14:32:14;0.95;;;0.77;;
27618;SDS011;15039;50.830;4.730;2022-09-02T14:34:45;2.58;;;0.60;;
27618;SDS011;15039;50.830;4.730;2022-09-02T14:37:13;0.65;;;0.60;;
27618;SDS011;15039;50.830;4.730;2022-09-02T14:42:32;1.15;;;0.85;;
27618;SDS011;15039;50.830;4.730;2022-09-02T14:44:59;1.38;;;0.82;;
27618;SDS011;15039;50.830;4.730;2022-09-02T14:47:27;2.40;;;0.73;;
27618;SDS011;15039;50.830;4.730;2022-09-02T14:49:53;0.77;;;0.63;;
27618;SDS011;15039;50.830;4.730;2022-09-02T14:54:50;4.45;;;1.33;;
27618;SDS011;15039;50.830;4.730;2022-09-02T14:59:47;0.90;;;0.60;;
27618;SDS011;15039;50.830;4.730;2022-09-02T15:04:52;1.30;;;1.20;;
27618;SDS011;15039;50.830;4.730;2022-09-02T15:07:18;0.60;;;0.52;;
27618;SDS011;15039;50.830;4.730;2022-09-02T15:09:43;2.45;;;0.60;;
27618;SDS011;15039;50.830;4.730;2022-09-02T15:12:10;1.80;;;0.70;;
27618;SDS011;15039;50.830;4.730;2022-09-02T15:14:37;0.77;;;0.70;;
27618;SDS011;15039;50.830;4.730;2022-09-02T15:17:07;0.90;;;0.68;;
27618;SDS011;15039;50.830;4.730;2022-09-02T15:19:35;2.05;;;0.68;;
27618;SDS011;15039;50.830;4.730;2022-09-02T15:22:01;1.05;;;0.80;;
27618;SDS011;15039;50.830;4.730;2022-09-02T15:24:27;1.55;;;1.10;;
27618;SDS011;15039;50.830;4.730;2022-09-02T15:26:52;2.55;;;0.70;;
27618;SDS011;15039;50.830;4.730;2022-09-02T15:29:18;1.63;;;0.73;;
27618;SDS011;15039;50.830;4.730;2022-09-02T15:31:44;1.10;;;0.85;;
27618;SDS011;15039;50.830;4.730;2022-09-02T15:34:10;0.70;;;0.60;;
27618;SDS011;15039;50.830;4.730;2022-09-02T15:36:36;1.05;;;0.70;;
27618;SDS011;15039;50.830;4.730;2022-09-02T15:39:02;2.35;;;0.70;;
27618;SDS011;15039;50.830;4.730;2022-09-02T15:41:28;1.00;;;0.60;;
27618;SDS011;15039;50.830;4.730;2022-09-02T15:43:55;1.42;;;0.73;;
27618;SDS011;15039;50.830;4.730;2022-09-02T15:48:58;0.70;;;0.70;;
27618;SDS011;15039;50.830;4.730;2022-09-02T15:51:25;0.88;;;0.88;;
27618;SDS011;15039;50.830;4.730;2022-09-02T15:53:57;1.90;;;0.93;;
27618;SDS011;15039;50.830;4.730;2022-09-02T15:56:26;1.60;;;0.80;;
27618;SDS011;15039;50.830;4.730;2022-09-02T15:58:54;0.73;;;0.70;;
27618;SDS011;15039;50.830;4.730;2022-09-02T16:01:22;1.95;;;0.77;;
27618;SDS011;15039;50.830;4.730;2022-09-02T16:03:52;2.30;;;0.70;;
27618;SDS011;15039;50.830;4.730;2022-09-02T16:06:19;2.50;;;0.73;;
27618;SDS011;15039;50.830;4.730;2022-09-02T16:08:45;2.72;;;1.15;;
27618;SDS011;15039;50.830;4.730;2022-09-02T16:11:11;1.05;;;0.70;;
27618;SDS011;15039;50.830;4.730;2022-09-02T16:13:37;3.00;;;0.85;;
27618;SDS011;15039;50.830;4.730;2022-09-02T16:16:04;3.35;;;0.80;;
27618;SDS011;15039;50.830;4.730;2022-09-02T16:18:31;0.80;;;0.80;;
27618;SDS011;15039;50.830;4.730;2022-09-02T16:20:58;1.13;;;0.70;;
27618;SDS011;15039;50.830;4.730;2022-09-02T16:23:23;3.03;;;0.70;;
27618;SDS011;15039;50.830;4.730;2022-09-02T16:26:04;1.45;;;0.70;;
27618;SDS011;15039;50.830;4.730;2022-09-02T16:28:38;1.42;;;0.90;;
27618;SDS011;15039;50.830;4.730;2022-09-02T16:31:06;6.38;;;0.70;;
27618;SDS011;15039;50.830;4.730;2022-09-02T16:33:33;2.30;;;0.70;;
27618;SDS011;15039;50.830;4.730;2022-09-02T16:36:00;2.85;;;0.68;;
27618;SDS011;15039;50.830;4.730;2022-09-02T16:38:27;4.07;;;0.85;;
27618;SDS011;15039;50.830;4.730;2022-09-02T16:40:53;1.63;;;0.70;;
27618;SDS011;15039;50.830;4.730;2022-09-02T16:43:20;0.82;;;0.60;;
27618;SDS011;15039;50.830;4.730;2022-09-02T16:45:46;2.05;;;0.90;;
27618;SDS011;15039;50.830;4.730;2022-09-02T16:48:13;2.72;;;1.00;;
27618;SDS011;15039;50.830;4.730;2022-09-02T16:50:38;3.08;;;1.10;;
27618;SDS011;15039;50.830;4.730;2022-09-02T16:53:04;2.42;;;0.95;;
27618;SDS011;15039;50.830;4.730;2022-09-02T16:55:30;0.80;;;0.63;;
27618;SDS011;15039;50.830;4.730;2022-09-02T16:57:56;3.50;;;0.90;;
27618;SDS011;15039;50.830;4.730;2022-09-02T17:00:25;2.05;;;0.90;;
27618;SDS011;15039;50.830;4.730;2022-09-02T17:02:51;1.17;;;0.90;;
27618;SDS011;15039;50.830;4.730;2022-09-02T17:05:16;1.25;;;0.80;;
27618;SDS011;15039;50.830;4.730;2022-09-02T17:07:42;3.80;;;0.90;;
27618;SDS011;15039;50.830;4.730;2022-09-02T17:10:09;1.52;;;1.30;;
27618;SDS011;15039;50.830;4.730;2022-09-02T17:12:35;3.30;;;0.90;;
27618;SDS011;15039;50.830;4.730;2022-09-02T17:15:01;1.10;;;0.80;;
27618;SDS011;15039;50.830;4.730;2022-09-02T17:17:27;0.95;;;0.80;;
27618;SDS011;15039;50.830;4.730;2022-09-02T17:19:53;1.92;;;0.90;;
27618;SDS011;15039;50.830;4.730;2022-09-02T17:22:18;1.70;;;1.00;;
27618;SDS011;15039;50.830;4.730;2022-09-02T17:24:44;4.05;;;1.10;;
27618;SDS011;15039;50.830;4.730;2022-09-02T17:27:10;3.55;;;0.98;;
27618;SDS011;15039;50.830;4.730;2022-09-02T17:29:35;1.08;;;0.70;;
27618;SDS011;15039;50.830;4.730;2022-09-02T17:32:02;7.85;;;1.30;;
27618;SDS011;15039;50.830;4.730;2022-09-02T17:34:28;10.90;;;1.50;;
27618;SDS011;15039;50.830;4.730;2022-09-02T17:36:57;6.53;;;1.33;;
27618;SDS011;15039;50.830;4.730;2022-09-02T17:39:22;4.07;;;1.17;;
27618;SDS011;15039;50.830;4.730;2022-09-02T17:41:48;14.13;;;1.73;;
27618;SDS011;15039;50.830;4.730;2022-09-02T17:44:25;21.77;;;1.98;;
27618;SDS011;15039;50.830;4.730;2022-09-02T17:46:59;11.43;;;1.95;;
27618;SDS011;15039;50.830;4.730;2022-09-02T17:49:25;14.07;;;1.70;;
27618;SDS011;15039;50.830;4.730;2022-09-02T17:51:53;11.85;;;1.58;;
27618;SDS011;15039;50.830;4.730;2022-09-02T17:54:18;5.68;;;1.40;;
27618;SDS011;15039;50.830;4.730;2022-09-02T18:05:17;2.67;;;1.13;;
27618;SDS011;15039;50.830;4.730;2022-09-02T18:07:56;8.93;;;1.70;;